sensor_id;sensor_type;location;lat;lon;timestamp;P1;durP1;ratioP1;P2;durP2;ratioP2
57325;SDS011;43161;50.950;18.224;2023-09-12T00:01:16;24.10;;;15.10;;
57325;SDS011;43161;50.950;18.224;2023-09-12T00:03:41;21.90;;;14.10;;
57325;SDS011;43161;50.950;18.224;2023-09-12T00:06:07;23.10;;;13.30;;
57325;SDS011;43161;50.950;18.224;2023-09-12T00:08:33;23.90;;;13.80;;
57325;SDS011;43161;50.950;18.224;2023-09-12T00:13:39;23.20;;;13.50;;
57325;SDS011;43161;50.950;18.224;2023-09-12T00:16:06;22.10;;;13.60;;
57325;SDS011;43161;50.950;18.224;2023-09-12T00:18:34;21.80;;;13.40;;
57325;SDS011;43161;50.950;18.224;2023-09-12T00:21:01;23.30;;;13.60;;
57325;SDS011;43161;50.950;18.224;2023-09-12T00:23:27;25.30;;;14.20;;
57325;SDS011;43161;50.950;18.224;2023-09-12T00:25:52;24.80;;;15.00;;
57325;SDS011;43161;50.950;18.224;2023-09-12T00:28:18;23.70;;;14.70;;
57325;SDS011;43161;50.950;18.224;2023-09-12T00:30:44;25.00;;;15.70;;
57325;SDS011;43161;50.950;18.224;2023-09-12T00:33:10;24.90;;;17.00;;
57325;SDS011;43161;50.950;18.224;2023-09-12T00:35:36;28.50;;;16.70;;
57325;SDS011;43161;50.950;18.224;2023-09-12T00:38:01;24.60;;;14.90;;
57325;SDS011;43161;50.950;18.224;2023-09-12T00:40:27;27.40;;;14.40;;
57325;SDS011;43161;50.950;18.224;2023-09-12T00:42:54;24.70;;;14.60;;
57325;SDS011;43161;50.950;18.224;2023-09-12T00:45:19;25.60;;;16.00;;
57325;SDS011;43161;50.950;18.224;2023-09-12T00:47:45;25.70;;;17.30;;
57325;SDS011;43161;50.950;18.224;2023-09-12T00:50:13;26.10;;;16.50;;
57325;SDS011;43161;50.950;18.224;2023-09-12T00:52:40;26.50;;;16.10;;
57325;SDS011;43161;50.950;18.224;2023-09-12T00:55:06;26.00;;;15.70;;
57325;SDS011;43161;50.950;18.224;2023-09-12T00:57:32;24.40;;;15.40;;
57325;SDS011;43161;50.950;18.224;2023-09-12T00:59:59;26.10;;;15.50;;
57325;SDS011;43161;50.950;18.224;2023-09-12T01:02:27;24.30;;;15.00;;
57325;SDS011;43161;50.950;18.224;2023-09-12T01:04:53;24.10;;;15.10;;
57325;SDS011;43161;50.950;18.224;2023-09-12T01:07:19;24.70;;;15.70;;
57325;SDS011;43161;50.950;18.224;2023-09-12T01:09:45;27.40;;;15.80;;
57325;SDS011;43161;50.950;18.224;2023-09-12T01:12:10;25.80;;;15.70;;
57325;SDS011;43161;50.950;18.224;2023-09-12T01:14:40;24.10;;;14.80;;
57325;SDS011;43161;50.950;18.224;2023-09-12T01:17:06;25.10;;;15.90;;
57325;SDS011;43161;50.950;18.224;2023-09-12T01:19:31;26.00;;;16.40;;
57325;SDS011;43161;50.950;18.224;2023-09-12T01:27:46;23.50;;;14.70;;
57325;SDS011;43161;50.950;18.224;2023-09-12T01:30:17;24.30;;;14.80;;
57325;SDS011;43161;50.950;18.224;2023-09-12T01:32:43;27.10;;;16.00;;
57325;SDS011;43161;50.950;18.224;2023-09-12T01:35:10;25.70;;;14.80;;
57325;SDS011;43161;50.950;18.224;2023-09-12T01:37:35;28.20;;;15.60;;
57325;SDS011;43161;50.950;18.224;2023-09-12T01:40:01;27.20;;;16.60;;
57325;SDS011;43161;50.950;18.224;2023-09-12T01:42:30;25.40;;;16.40;;
57325;SDS011;43161;50.950;18.224;2023-09-12T01:44:57;27.30;;;15.90;;
57325;SDS011;43161;50.950;18.224;2023-09-12T01:47:23;26.80;;;16.60;;
57325;SDS011;43161;50.950;18.224;2023-09-12T01:49:51;33.00;;;15.40;;
57325;SDS011;43161;50.950;18.224;2023-09-12T01:52:18;27.90;;;16.60;;
57325;SDS011;43161;50.950;18.224;2023-09-12T01:54:44;29.50;;;16.30;;
57325;SDS011;43161;50.950;18.224;2023-09-12T01:57:10;28.80;;;17.40;;
57325;SDS011;43161;50.950;18.224;2023-09-12T01:59:36;27.60;;;16.70;;
57325;SDS011;43161;50.950;18.224;2023-09-12T02:02:02;27.00;;;16.10;;
57325;SDS011;43161;50.950;18.224;2023-09-12T02:04:28;30.00;;;17.80;;
57325;SDS011;43161;50.950;18.224;2023-09-12T02:06:54;26.20;;;16.60;;
57325;SDS011;43161;50.950;18.224;2023-09-12T02:09:20;29.00;;;16.50;;
57325;SDS011;43161;50.950;18.224;2023-09-12T02:11:46;27.60;;;17.70;;
57325;SDS011;43161;50.950;18.224;2023-09-12T02:14:12;28.20;;;17.20;;
57325;SDS011;43161;50.950;18.224;2023-09-12T02:16:38;27.90;;;17.00;;
57325;SDS011;43161;50.950;18.224;2023-09-12T02:19:04;29.20;;;17.20;;
57325;SDS011;43161;50.950;18.224;2023-09-12T02:21:32;27.10;;;16.80;;
57325;SDS011;43161;50.950;18.224;2023-09-12T02:23:57;28.90;;;17.40;;
57325;SDS011;43161;50.950;18.224;2023-09-12T02:26:23;30.10;;;17.20;;
57325;SDS011;43161;50.950;18.224;2023-09-12T02:28:48;29.20;;;17.60;;
57325;SDS011;43161;50.950;18.224;2023-09-12T02:31:14;26.80;;;16.50;;
57325;SDS011;43161;50.950;18.224;2023-09-12T02:33:40;28.20;;;16.40;;
57325;SDS011;43161;50.950;18.224;2023-09-12T02:36:05;26.80;;;16.10;;
57325;SDS011;43161;50.950;18.224;2023-09-12T02:38:31;25.70;;;16.00;;
57325;SDS011;43161;50.950;18.224;2023-09-12T02:40:58;27.40;;;16.70;;
57325;SDS011;43161;50.950;18.224;2023-09-12T02:43:23;30.50;;;17.30;;
57325;SDS011;43161;50.950;18.224;2023-09-12T02:45:49;28.90;;;17.40;;
57325;SDS011;43161;50.950;18.224;2023-09-12T02:48:14;30.00;;;17.90;;
57325;SDS011;43161;50.950;18.224;2023-09-12T02:50:40;27.20;;;16.20;;
57325;SDS011;43161;50.950;18.224;2023-09-12T02:53:06;25.30;;;15.60;;
57325;SDS011;43161;50.950;18.224;2023-09-12T02:55:31;26.80;;;15.20;;
57325;SDS011;43161;50.950;18.224;2023-09-12T02:57:57;24.00;;;15.40;;
57325;SDS011;43161;50.950;18.224;2023-09-12T03:00:23;27.80;;;16.00;;
57325;SDS011;43161;50.950;18.224;2023-09-12T03:02:49;27.80;;;16.30;;
57325;SDS011;43161;50.950;18.224;2023-09-12T03:05:15;25.70;;;14.90;;
57325;SDS011;43161;50.950;18.224;2023-09-12T03:07:40;23.40;;;15.10;;
57325;SDS011;43161;50.950;18.224;2023-09-12T03:10:06;27.30;;;15.80;;
57325;SDS011;43161;50.950;18.224;2023-09-12T03:12:32;24.20;;;15.50;;
57325;SDS011;43161;50.950;18.224;2023-09-12T03:14:58;29.30;;;16.80;;
57325;SDS011;43161;50.950;18.224;2023-09-12T03:17:23;25.90;;;16.40;;
57325;SDS011;43161;50.950;18.224;2023-09-12T03:19:49;26.00;;;16.40;;
57325;SDS011;43161;50.950;18.224;2023-09-12T03:22:14;26.10;;;15.80;;
57325;SDS011;43161;50.950;18.224;2023-09-12T03:24:40;24.00;;;16.20;;
57325;SDS011;43161;50.950;18.224;2023-09-12T03:27:06;27.10;;;16.50;;
57325;SDS011;43161;50.950;18.224;2023-09-12T03:29:33;27.20;;;16.70;;
57325;SDS011;43161;50.950;18.224;2023-09-12T03:31:58;23.20;;;15.20;;
57325;SDS011;43161;50.950;18.224;2023-09-12T03:34:24;25.40;;;16.10;;
57325;SDS011;43161;50.950;18.224;2023-09-12T03:36:49;25.30;;;16.10;;
57325;SDS011;43161;50.950;18.224;2023-09-12T03:39:15;28.50;;;15.80;;
57325;SDS011;43161;50.950;18.224;2023-09-12T03:41:41;26.00;;;16.60;;
57325;SDS011;43161;50.950;18.224;2023-09-12T03:44:06;26.30;;;16.60;;
57325;SDS011;43161;50.950;18.224;2023-09-12T03:46:32;25.90;;;15.60;;
57325;SDS011;43161;50.950;18.224;2023-09-12T03:48:57;26.60;;;16.40;;
57325;SDS011;43161;50.950;18.224;2023-09-12T03:51:23;27.60;;;16.90;;
57325;SDS011;43161;50.950;18.224;2023-09-12T03:53:48;27.90;;;16.50;;
57325;SDS011;43161;50.950;18.224;2023-09-12T03:56:15;26.60;;;16.30;;
57325;SDS011;43161;50.950;18.224;2023-09-12T03:58:42;27.50;;;16.30;;
57325;SDS011;43161;50.950;18.224;2023-09-12T04:01:07;25.00;;;14.60;;
57325;SDS011;43161;50.950;18.224;2023-09-12T04:03:33;26.20;;;15.30;;
57325;SDS011;43161;50.950;18.224;2023-09-12T04:05:58;25.20;;;15.40;;
57325;SDS011;43161;50.950;18.224;2023-09-12T04:08:24;27.90;;;15.80;;
57325;SDS011;43161;50.950;18.224;2023-09-12T04:10:49;25.70;;;15.70;;
57325;SDS011;43161;50.950;18.224;2023-09-12T04:13:15;25.10;;;15.50;;
57325;SDS011;43161;50.950;18.224;2023-09-12T04:15:41;24.60;;;15.50;;
57325;SDS011;43161;50.950;18.224;2023-09-12T04:18:08;24.80;;;14.70;;
57325;SDS011;43161;50.950;18.224;2023-09-12T04:20:34;24.20;;;15.00;;
57325;SDS011;43161;50.950;18.224;2023-09-12T04:23:02;24.40;;;14.80;;
57325;SDS011;43161;50.950;18.224;2023-09-12T04:25:29;26.20;;;15.30;;
57325;SDS011;43161;50.950;18.224;2023-09-12T04:27:55;26.20;;;15.70;;
57325;SDS011;43161;50.950;18.224;2023-09-12T04:30:21;25.00;;;15.10;;
57325;SDS011;43161;50.950;18.224;2023-09-12T04:32:47;25.30;;;15.20;;
57325;SDS011;43161;50.950;18.224;2023-09-12T04:35:12;25.70;;;16.50;;
57325;SDS011;43161;50.950;18.224;2023-09-12T04:37:38;28.00;;;15.80;;
57325;SDS011;43161;50.950;18.224;2023-09-12T04:40:04;26.10;;;16.30;;
57325;SDS011;43161;50.950;18.224;2023-09-12T04:42:32;32.10;;;16.40;;
57325;SDS011;43161;50.950;18.224;2023-09-12T04:44:57;28.70;;;16.20;;
57325;SDS011;43161;50.950;18.224;2023-09-12T04:47:23;24.90;;;15.70;;
57325;SDS011;43161;50.950;18.224;2023-09-12T04:49:49;27.00;;;16.00;;
57325;SDS011;43161;50.950;18.224;2023-09-12T04:52:14;26.70;;;16.00;;
57325;SDS011;43161;50.950;18.224;2023-09-12T04:54:40;27.60;;;16.60;;
57325;SDS011;43161;50.950;18.224;2023-09-12T04:57:07;28.60;;;16.50;;
57325;SDS011;43161;50.950;18.224;2023-09-12T04:59:32;26.00;;;16.30;;
57325;SDS011;43161;50.950;18.224;2023-09-12T05:01:58;27.10;;;15.50;;
57325;SDS011;43161;50.950;18.224;2023-09-12T05:04:24;25.80;;;16.00;;
57325;SDS011;43161;50.950;18.224;2023-09-12T05:06:49;24.30;;;15.20;;
57325;SDS011;43161;50.950;18.224;2023-09-12T05:09:15;26.20;;;15.70;;
57325;SDS011;43161;50.950;18.224;2023-09-12T05:11:41;23.90;;;15.40;;
57325;SDS011;43161;50.950;18.224;2023-09-12T05:14:07;25.60;;;15.40;;
57325;SDS011;43161;50.950;18.224;2023-09-12T05:16:33;27.10;;;14.80;;
57325;SDS011;43161;50.950;18.224;2023-09-12T05:19:00;24.80;;;15.00;;
57325;SDS011;43161;50.950;18.224;2023-09-12T05:21:25;23.90;;;15.60;;
57325;SDS011;43161;50.950;18.224;2023-09-12T05:23:51;26.60;;;16.20;;
57325;SDS011;43161;50.950;18.224;2023-09-12T05:26:17;23.40;;;14.30;;
57325;SDS011;43161;50.950;18.224;2023-09-12T05:28:42;27.20;;;16.60;;
57325;SDS011;43161;50.950;18.224;2023-09-12T05:31:08;28.60;;;17.00;;
57325;SDS011;43161;50.950;18.224;2023-09-12T05:33:33;26.40;;;16.50;;
57325;SDS011;43161;50.950;18.224;2023-09-12T05:36:00;24.40;;;14.90;;
57325;SDS011;43161;50.950;18.224;2023-09-12T05:38:26;26.70;;;17.30;;
57325;SDS011;43161;50.950;18.224;2023-09-12T05:40:51;28.90;;;17.20;;
57325;SDS011;43161;50.950;18.224;2023-09-12T05:43:18;27.60;;;16.80;;
57325;SDS011;43161;50.950;18.224;2023-09-12T05:45:44;28.50;;;17.90;;
57325;SDS011;43161;50.950;18.224;2023-09-12T05:48:09;27.60;;;18.10;;
57325;SDS011;43161;50.950;18.224;2023-09-12T05:50:36;36.30;;;21.70;;
57325;SDS011;43161;50.950;18.224;2023-09-12T05:53:02;34.30;;;19.60;;
57325;SDS011;43161;50.950;18.224;2023-09-12T05:55:28;29.50;;;19.10;;
57325;SDS011;43161;50.950;18.224;2023-09-12T05:57:53;29.00;;;19.40;;
57325;SDS011;43161;50.950;18.224;2023-09-12T06:00:19;28.50;;;17.90;;
57325;SDS011;43161;50.950;18.224;2023-09-12T06:02:48;30.30;;;18.60;;
57325;SDS011;43161;50.950;18.224;2023-09-12T06:05:14;31.00;;;18.50;;
57325;SDS011;43161;50.950;18.224;2023-09-12T06:07:41;31.20;;;17.80;;
57325;SDS011;43161;50.950;18.224;2023-09-12T06:10:09;27.30;;;17.50;;
57325;SDS011;43161;50.950;18.224;2023-09-12T06:12:35;35.00;;;22.20;;
57325;SDS011;43161;50.950;18.224;2023-09-12T06:15:04;34.80;;;23.10;;
57325;SDS011;43161;50.950;18.224;2023-09-12T06:17:30;34.20;;;21.40;;
57325;SDS011;43161;50.950;18.224;2023-09-12T06:19:57;33.90;;;23.60;;
57325;SDS011;43161;50.950;18.224;2023-09-12T06:22:23;40.80;;;26.80;;
57325;SDS011;43161;50.950;18.224;2023-09-12T06:24:51;36.00;;;21.20;;
57325;SDS011;43161;50.950;18.224;2023-09-12T06:27:18;28.50;;;19.30;;
57325;SDS011;43161;50.950;18.224;2023-09-12T06:29:47;28.60;;;18.40;;
57325;SDS011;43161;50.950;18.224;2023-09-12T06:32:22;29.10;;;18.80;;
57325;SDS011;43161;50.950;18.224;2023-09-12T06:34:48;28.40;;;19.70;;
57325;SDS011;43161;50.950;18.224;2023-09-12T06:37:13;28.90;;;18.70;;
57325;SDS011;43161;50.950;18.224;2023-09-12T06:39:39;34.30;;;19.00;;
57325;SDS011;43161;50.950;18.224;2023-09-12T06:42:05;29.70;;;18.40;;
57325;SDS011;43161;50.950;18.224;2023-09-12T06:44:31;27.00;;;17.30;;
57325;SDS011;43161;50.950;18.224;2023-09-12T06:46:56;27.40;;;18.50;;
57325;SDS011;43161;50.950;18.224;2023-09-12T06:49:22;26.20;;;18.00;;
57325;SDS011;43161;50.950;18.224;2023-09-12T06:51:48;25.70;;;17.60;;
57325;SDS011;43161;50.950;18.224;2023-09-12T06:54:14;29.20;;;18.80;;
57325;SDS011;43161;50.950;18.224;2023-09-12T06:56:40;27.60;;;19.00;;
57325;SDS011;43161;50.950;18.224;2023-09-12T06:59:08;24.80;;;17.00;;
57325;SDS011;43161;50.950;18.224;2023-09-12T07:01:34;28.30;;;18.00;;
57325;SDS011;43161;50.950;18.224;2023-09-12T07:04:00;28.10;;;17.30;;
57325;SDS011;43161;50.950;18.224;2023-09-12T07:06:25;26.00;;;18.60;;
57325;SDS011;43161;50.950;18.224;2023-09-12T07:08:51;28.30;;;19.30;;
57325;SDS011;43161;50.950;18.224;2023-09-12T07:11:16;27.90;;;19.30;;
57325;SDS011;43161;50.950;18.224;2023-09-12T07:13:44;32.10;;;19.80;;
57325;SDS011;43161;50.950;18.224;2023-09-12T07:16:10;27.30;;;18.40;;
57325;SDS011;43161;50.950;18.224;2023-09-12T07:18:35;28.00;;;19.10;;
57325;SDS011;43161;50.950;18.224;2023-09-12T07:21:02;25.10;;;17.80;;
57325;SDS011;43161;50.950;18.224;2023-09-12T07:23:30;30.40;;;18.80;;
57325;SDS011;43161;50.950;18.224;2023-09-12T07:25:56;28.30;;;18.70;;
57325;SDS011;43161;50.950;18.224;2023-09-12T07:28:25;27.70;;;19.10;;
57325;SDS011;43161;50.950;18.224;2023-09-12T07:30:52;28.80;;;20.30;;
57325;SDS011;43161;50.950;18.224;2023-09-12T07:33:22;26.80;;;18.00;;
57325;SDS011;43161;50.950;18.224;2023-09-12T07:35:48;30.50;;;19.10;;
57325;SDS011;43161;50.950;18.224;2023-09-12T07:38:14;29.60;;;19.50;;
57325;SDS011;43161;50.950;18.224;2023-09-12T07:40:42;29.50;;;19.60;;
57325;SDS011;43161;50.950;18.224;2023-09-12T07:43:08;32.60;;;19.10;;
57325;SDS011;43161;50.950;18.224;2023-09-12T07:45:35;30.30;;;19.40;;
57325;SDS011;43161;50.950;18.224;2023-09-12T07:48:11;27.70;;;20.10;;
57325;SDS011;43161;50.950;18.224;2023-09-12T07:50:37;32.40;;;20.60;;
57325;SDS011;43161;50.950;18.224;2023-09-12T07:53:04;29.10;;;19.20;;
57325;SDS011;43161;50.950;18.224;2023-09-12T07:55:30;27.50;;;18.00;;
57325;SDS011;43161;50.950;18.224;2023-09-12T07:58:02;30.00;;;17.30;;
57325;SDS011;43161;50.950;18.224;2023-09-12T08:00:28;23.30;;;14.50;;
57325;SDS011;43161;50.950;18.224;2023-09-12T08:02:55;23.00;;;14.90;;
57325;SDS011;43161;50.950;18.224;2023-09-12T08:05:20;23.60;;;14.40;;
57325;SDS011;43161;50.950;18.224;2023-09-12T08:07:46;20.20;;;13.30;;
57325;SDS011;43161;50.950;18.224;2023-09-12T08:10:12;21.30;;;13.80;;
57325;SDS011;43161;50.950;18.224;2023-09-12T08:12:37;23.10;;;14.00;;
57325;SDS011;43161;50.950;18.224;2023-09-12T08:15:04;22.40;;;13.40;;
57325;SDS011;43161;50.950;18.224;2023-09-12T08:17:30;21.40;;;12.90;;
57325;SDS011;43161;50.950;18.224;2023-09-12T08:19:57;20.90;;;13.20;;
57325;SDS011;43161;50.950;18.224;2023-09-12T08:22:24;21.10;;;13.00;;
57325;SDS011;43161;50.950;18.224;2023-09-12T08:24:49;20.00;;;12.20;;
57325;SDS011;43161;50.950;18.224;2023-09-12T08:27:15;20.50;;;12.20;;
57325;SDS011;43161;50.950;18.224;2023-09-12T08:29:41;17.80;;;12.40;;
57325;SDS011;43161;50.950;18.224;2023-09-12T08:32:07;19.40;;;12.80;;
57325;SDS011;43161;50.950;18.224;2023-09-12T08:34:33;18.80;;;11.20;;
57325;SDS011;43161;50.950;18.224;2023-09-12T08:36:58;24.20;;;11.30;;
57325;SDS011;43161;50.950;18.224;2023-09-12T08:39:25;18.90;;;11.30;;
57325;SDS011;43161;50.950;18.224;2023-09-12T08:41:52;19.20;;;10.70;;
57325;SDS011;43161;50.950;18.224;2023-09-12T08:44:19;18.10;;;11.90;;
57325;SDS011;43161;50.950;18.224;2023-09-12T08:46:45;16.10;;;10.30;;
57325;SDS011;43161;50.950;18.224;2023-09-12T08:49:11;16.70;;;10.50;;
57325;SDS011;43161;50.950;18.224;2023-09-12T08:51:38;19.10;;;11.10;;
57325;SDS011;43161;50.950;18.224;2023-09-12T08:54:05;20.40;;;11.10;;
57325;SDS011;43161;50.950;18.224;2023-09-12T08:56:35;24.90;;;11.80;;
57325;SDS011;43161;50.950;18.224;2023-09-12T08:59:02;19.90;;;11.20;;
57325;SDS011;43161;50.950;18.224;2023-09-12T09:01:32;16.90;;;10.10;;
57325;SDS011;43161;50.950;18.224;2023-09-12T09:03:58;17.10;;;10.20;;
57325;SDS011;43161;50.950;18.224;2023-09-12T09:06:24;18.30;;;9.70;;
57325;SDS011;43161;50.950;18.224;2023-09-12T09:08:51;14.90;;;8.70;;
57325;SDS011;43161;50.950;18.224;2023-09-12T09:11:17;17.00;;;9.60;;
57325;SDS011;43161;50.950;18.224;2023-09-12T09:13:42;16.20;;;8.30;;
57325;SDS011;43161;50.950;18.224;2023-09-12T09:18:57;17.60;;;10.00;;
57325;SDS011;43161;50.950;18.224;2023-09-12T09:21:25;15.40;;;9.40;;
57325;SDS011;43161;50.950;18.224;2023-09-12T09:23:52;14.40;;;8.90;;
57325;SDS011;43161;50.950;18.224;2023-09-12T09:26:18;15.50;;;8.60;;
57325;SDS011;43161;50.950;18.224;2023-09-12T09:28:45;16.40;;;9.30;;
57325;SDS011;43161;50.950;18.224;2023-09-12T09:31:11;18.80;;;9.90;;
57325;SDS011;43161;50.950;18.224;2023-09-12T09:33:39;13.80;;;8.30;;
57325;SDS011;43161;50.950;18.224;2023-09-12T09:36:06;14.90;;;8.50;;
57325;SDS011;43161;50.950;18.224;2023-09-12T09:38:34;17.30;;;9.30;;
57325;SDS011;43161;50.950;18.224;2023-09-12T09:41:03;13.90;;;8.10;;
57325;SDS011;43161;50.950;18.224;2023-09-12T09:43:30;14.10;;;8.00;;
57325;SDS011;43161;50.950;18.224;2023-09-12T09:45:57;15.30;;;8.10;;
57325;SDS011;43161;50.950;18.224;2023-09-12T09:48:24;14.30;;;8.90;;
57325;SDS011;43161;50.950;18.224;2023-09-12T09:50:52;13.50;;;8.20;;
57325;SDS011;43161;50.950;18.224;2023-09-12T09:53:36;13.70;;;7.60;;
57325;SDS011;43161;50.950;18.224;2023-09-12T09:56:11;18.10;;;8.10;;
57325;SDS011;43161;50.950;18.224;2023-09-12T10:01:26;17.40;;;8.80;;
57325;SDS011;43161;50.950;18.224;2023-09-12T10:03:55;16.50;;;8.80;;
57325;SDS011;43161;50.950;18.224;2023-09-12T10:06:23;13.00;;;7.50;;
57325;SDS011;43161;50.950;18.224;2023-09-12T10:08:50;12.80;;;7.40;;
57325;SDS011;43161;50.950;18.224;2023-09-12T10:11:17;16.30;;;8.30;;
57325;SDS011;43161;50.950;18.224;2023-09-12T10:13:54;14.90;;;7.90;;
57325;SDS011;43161;50.950;18.224;2023-09-12T10:16:24;13.00;;;8.00;;
57325;SDS011;43161;50.950;18.224;2023-09-12T10:24:42;15.70;;;7.60;;
57325;SDS011;43161;50.950;18.224;2023-09-12T10:27:09;13.50;;;7.80;;
57325;SDS011;43161;50.950;18.224;2023-09-12T10:29:36;13.30;;;8.20;;
57325;SDS011;43161;50.950;18.224;2023-09-12T10:32:03;14.50;;;7.70;;
57325;SDS011;43161;50.950;18.224;2023-09-12T10:34:30;13.30;;;7.50;;
57325;SDS011;43161;50.950;18.224;2023-09-12T10:36:57;13.40;;;7.60;;
57325;SDS011;43161;50.950;18.224;2023-09-12T10:39:25;13.20;;;7.70;;
57325;SDS011;43161;50.950;18.224;2023-09-12T10:41:52;13.40;;;7.70;;
57325;SDS011;43161;50.950;18.224;2023-09-12T10:44:19;12.80;;;7.30;;
57325;SDS011;43161;50.950;18.224;2023-09-12T10:46:46;14.90;;;8.60;;
57325;SDS011;43161;50.950;18.224;2023-09-12T10:49:14;13.00;;;8.40;;
57325;SDS011;43161;50.950;18.224;2023-09-12T10:51:44;12.30;;;7.50;;
57325;SDS011;43161;50.950;18.224;2023-09-12T10:54:14;15.20;;;8.30;;
57325;SDS011;43161;50.950;18.224;2023-09-12T10:56:41;14.30;;;7.00;;
57325;SDS011;43161;50.950;18.224;2023-09-12T11:01:34;13.50;;;7.20;;
57325;SDS011;43161;50.950;18.224;2023-09-12T11:06:45;13.50;;;7.70;;
57325;SDS011;43161;50.950;18.224;2023-09-12T11:11:55;15.90;;;8.50;;
57325;SDS011;43161;50.950;18.224;2023-09-12T11:14:24;13.20;;;7.90;;
57325;SDS011;43161;50.950;18.224;2023-09-12T11:20:06;15.10;;;8.30;;
57325;SDS011;43161;50.950;18.224;2023-09-12T11:24:50;13.30;;;7.40;;
57325;SDS011;43161;50.950;18.224;2023-09-12T11:27:16;13.00;;;7.40;;
57325;SDS011;43161;50.950;18.224;2023-09-12T11:29:42;13.50;;;7.40;;
57325;SDS011;43161;50.950;18.224;2023-09-12T11:32:08;13.90;;;7.50;;
57325;SDS011;43161;50.950;18.224;2023-09-12T11:34:38;13.70;;;7.30;;
57325;SDS011;43161;50.950;18.224;2023-09-12T11:37:06;13.30;;;7.10;;
57325;SDS011;43161;50.950;18.224;2023-09-12T11:39:33;14.90;;;7.80;;
57325;SDS011;43161;50.950;18.224;2023-09-12T11:42:00;13.30;;;7.00;;
57325;SDS011;43161;50.950;18.224;2023-09-12T11:44:27;12.30;;;7.40;;
57325;SDS011;43161;50.950;18.224;2023-09-12T11:46:53;14.40;;;7.20;;
57325;SDS011;43161;50.950;18.224;2023-09-12T11:49:20;12.50;;;6.80;;
57325;SDS011;43161;50.950;18.224;2023-09-12T11:51:49;12.30;;;7.00;;
57325;SDS011;43161;50.950;18.224;2023-09-12T11:54:19;12.30;;;7.10;;
57325;SDS011;43161;50.950;18.224;2023-09-12T11:56:47;13.90;;;7.30;;
57325;SDS011;43161;50.950;18.224;2023-09-12T11:59:14;16.60;;;7.80;;
57325;SDS011;43161;50.950;18.224;2023-09-12T12:01:41;13.80;;;7.20;;
57325;SDS011;43161;50.950;18.224;2023-09-12T12:04:07;12.00;;;7.10;;
57325;SDS011;43161;50.950;18.224;2023-09-12T12:06:34;12.30;;;6.60;;
57325;SDS011;43161;50.950;18.224;2023-09-12T12:09:00;14.00;;;7.20;;
57325;SDS011;43161;50.950;18.224;2023-09-12T12:11:27;14.90;;;7.20;;
57325;SDS011;43161;50.950;18.224;2023-09-12T12:13:53;15.10;;;8.10;;
57325;SDS011;43161;50.950;18.224;2023-09-12T12:16:19;20.80;;;7.80;;
57325;SDS011;43161;50.950;18.224;2023-09-12T12:18:45;11.90;;;6.70;;
57325;SDS011;43161;50.950;18.224;2023-09-12T12:21:10;12.70;;;6.60;;
57325;SDS011;43161;50.950;18.224;2023-09-12T12:23:36;13.00;;;6.70;;
57325;SDS011;43161;50.950;18.224;2023-09-12T12:26:08;12.10;;;7.40;;
57325;SDS011;43161;50.950;18.224;2023-09-12T12:28:35;16.00;;;7.60;;
57325;SDS011;43161;50.950;18.224;2023-09-12T12:31:00;11.90;;;7.20;;
57325;SDS011;43161;50.950;18.224;2023-09-12T12:33:26;12.40;;;7.10;;
57325;SDS011;43161;50.950;18.224;2023-09-12T12:36:13;12.50;;;7.30;;
57325;SDS011;43161;50.950;18.224;2023-09-12T12:38:38;13.70;;;7.40;;
57325;SDS011;43161;50.950;18.224;2023-09-12T12:41:10;17.80;;;7.00;;
57325;SDS011;43161;50.950;18.224;2023-09-12T12:43:35;11.90;;;6.90;;
57325;SDS011;43161;50.950;18.224;2023-09-12T12:46:02;12.50;;;7.30;;
57325;SDS011;43161;50.950;18.224;2023-09-12T12:53:48;11.90;;;6.90;;
57325;SDS011;43161;50.950;18.224;2023-09-12T12:56:20;12.30;;;7.50;;
57325;SDS011;43161;50.950;18.224;2023-09-12T13:01:16;13.30;;;7.20;;
57325;SDS011;43161;50.950;18.224;2023-09-12T13:03:41;12.50;;;7.30;;
57325;SDS011;43161;50.950;18.224;2023-09-12T13:06:08;11.80;;;7.00;;
57325;SDS011;43161;50.950;18.224;2023-09-12T13:08:39;12.70;;;7.20;;
57325;SDS011;43161;50.950;18.224;2023-09-12T13:11:08;12.90;;;7.10;;
57325;SDS011;43161;50.950;18.224;2023-09-12T13:13:35;12.70;;;6.70;;
57325;SDS011;43161;50.950;18.224;2023-09-12T13:16:02;12.10;;;7.20;;
57325;SDS011;43161;50.950;18.224;2023-09-12T13:18:33;14.40;;;7.10;;
57325;SDS011;43161;50.950;18.224;2023-09-12T13:20:59;14.10;;;7.20;;
57325;SDS011;43161;50.950;18.224;2023-09-12T13:23:25;12.00;;;7.00;;
57325;SDS011;43161;50.950;18.224;2023-09-12T13:25:51;14.40;;;7.50;;
57325;SDS011;43161;50.950;18.224;2023-09-12T13:28:17;11.90;;;6.30;;
57325;SDS011;43161;50.950;18.224;2023-09-12T13:30:43;11.90;;;6.70;;
57325;SDS011;43161;50.950;18.224;2023-09-12T13:33:10;13.70;;;8.40;;
57325;SDS011;43161;50.950;18.224;2023-09-12T13:35:36;13.70;;;7.80;;
57325;SDS011;43161;50.950;18.224;2023-09-12T13:38:03;15.10;;;7.60;;
57325;SDS011;43161;50.950;18.224;2023-09-12T13:40:44;13.00;;;7.40;;
57325;SDS011;43161;50.950;18.224;2023-09-12T13:43:11;13.10;;;7.20;;
57325;SDS011;43161;50.950;18.224;2023-09-12T13:45:37;13.10;;;7.40;;
57325;SDS011;43161;50.950;18.224;2023-09-12T13:48:03;12.70;;;7.50;;
57325;SDS011;43161;50.950;18.224;2023-09-12T13:50:30;15.10;;;7.70;;
57325;SDS011;43161;50.950;18.224;2023-09-12T13:52:57;12.00;;;7.30;;
57325;SDS011;43161;50.950;18.224;2023-09-12T13:55:24;14.80;;;7.90;;
57325;SDS011;43161;50.950;18.224;2023-09-12T13:57:50;14.00;;;7.40;;
57325;SDS011;43161;50.950;18.224;2023-09-12T14:00:16;13.40;;;7.50;;
57325;SDS011;43161;50.950;18.224;2023-09-12T14:02:42;14.90;;;7.90;;
57325;SDS011;43161;50.950;18.224;2023-09-12T14:05:11;13.70;;;7.70;;
57325;SDS011;43161;50.950;18.224;2023-09-12T14:07:37;15.60;;;7.40;;
57325;SDS011;43161;50.950;18.224;2023-09-12T14:10:05;13.10;;;7.20;;
57325;SDS011;43161;50.950;18.224;2023-09-12T14:12:34;14.00;;;8.20;;
57325;SDS011;43161;50.950;18.224;2023-09-12T14:15:00;15.70;;;8.40;;
57325;SDS011;43161;50.950;18.224;2023-09-12T14:17:25;13.70;;;8.10;;
57325;SDS011;43161;50.950;18.224;2023-09-12T14:19:52;13.10;;;8.10;;
57325;SDS011;43161;50.950;18.224;2023-09-12T14:22:18;15.00;;;8.00;;
57325;SDS011;43161;50.950;18.224;2023-09-12T14:24:43;13.10;;;7.80;;
57325;SDS011;43161;50.950;18.224;2023-09-12T14:27:09;12.20;;;7.90;;
57325;SDS011;43161;50.950;18.224;2023-09-12T14:29:35;14.00;;;7.80;;
57325;SDS011;43161;50.950;18.224;2023-09-12T14:32:00;15.80;;;7.60;;
57325;SDS011;43161;50.950;18.224;2023-09-12T14:34:26;13.80;;;7.50;;
57325;SDS011;43161;50.950;18.224;2023-09-12T14:36:55;14.40;;;8.20;;
57325;SDS011;43161;50.950;18.224;2023-09-12T14:39:21;11.90;;;7.60;;
57325;SDS011;43161;50.950;18.224;2023-09-12T14:41:47;13.20;;;7.70;;
57325;SDS011;43161;50.950;18.224;2023-09-12T14:44:20;15.00;;;8.00;;
57325;SDS011;43161;50.950;18.224;2023-09-12T14:46:46;12.90;;;7.60;;
57325;SDS011;43161;50.950;18.224;2023-09-12T14:49:11;14.40;;;8.30;;
57325;SDS011;43161;50.950;18.224;2023-09-12T14:51:37;14.40;;;8.00;;